Terminal Aerodrome Forecast
Issued by NWS

Home | Current Version | Previous Version | Text Only | Print | Product List | Glossary On
Versions: 1 2 3 4 5 6 7 8 9 10 11 12 13 14 15 16 17 18
000
FTAK31 PAJN 221100
TAFAWG
TAF
PAWG 221124Z 2212/2312 12017G23KT P6SM -SHRA BKN040 OVC080
      WS020/13030KT
     FM221700 12010KT P6SM VCSH BKN045
     FM230000 12005KT P6SM BKN060
     FM230700 12008KT P6SM VCSH BKN040 OVC060
      AMD LTD TO CLD VIS AND WIND 2212/2215=

USA.gov is the U.S. government's official web portal to all federal, state and local government web resources and services.